createdAt,value
2023-09-04T00:01:06.183Z,99070.23
2023-09-04T00:03:33.058Z,99069.49
2023-09-04T00:05:59.901Z,99068.79
2023-09-04T00:08:26.853Z,99065.90
2023-09-04T00:10:53.997Z,99063.39
2023-09-04T00:13:20.652Z,99062.59
2023-09-04T00:15:47.393Z,99065.30
2023-09-04T00:18:14.497Z,99064.19
2023-09-04T00:20:41.339Z,99065.83
2023-09-04T00:23:08.528Z,99068.55
2023-09-04T00:25:35.409Z,99072.56
2023-09-04T00:28:02.162Z,99076.58
2023-09-04T00:30:29.075Z,99076.00
2023-09-04T00:32:56.012Z,99078.10
2023-09-04T00:35:23.705Z,99075.98
2023-09-04T00:37:50.975Z,99079.75
2023-09-04T00:40:17.889Z,99078.00
2023-09-04T00:42:44.640Z,99077.52
2023-09-04T00:45:11.890Z,99073.27
2023-09-04T00:47:46.373Z,99070.80
2023-09-04T00:50:18.329Z,99069.61
2023-09-04T00:52:45.445Z,99069.47
2023-09-04T00:55:12.712Z,99074.07
2023-09-04T00:57:42.990Z,99080.44
2023-09-04T01:00:10.757Z,99078.58
2023-09-04T01:02:42.282Z,99082.39
2023-09-04T01:05:09.756Z,99082.81
2023-09-04T01:07:36.713Z,99088.67
2023-09-04T01:10:04.181Z,99086.02
2023-09-04T01:12:51.313Z,99088.79
2023-09-04T01:15:18.370Z,99088.92
2023-09-04T01:17:46.869Z,99088.41
2023-09-04T01:20:23.543Z,99091.44
2023-09-04T01:22:50.210Z,99091.93
2023-09-04T01:25:17.256Z,99098.29
2023-09-04T01:28:05.203Z,99098.48
2023-09-04T01:31:07.395Z,99102.71
2023-09-04T01:33:40.804Z,99108.09
2023-09-04T01:36:11.415Z,99105.86
2023-09-04T01:38:39.115Z,99099.31
2023-09-04T01:41:09.744Z,99106.38
2023-09-04T01:43:36.606Z,99110.90
2023-09-04T01:46:03.428Z,99113.41
2023-09-04T01:48:30.066Z,99116.86
2023-09-04T01:50:56.780Z,99116.00
2023-09-04T01:53:24.072Z,99117.54
2023-09-04T01:55:50.798Z,99117.42
2023-09-04T01:58:17.445Z,99114.60
2023-09-04T02:00:44.088Z,99119.13
2023-09-04T02:03:10.782Z,99118.84
2023-09-04T02:05:40.696Z,99123.05
2023-09-04T02:08:07.721Z,99117.26
2023-09-04T02:10:35.899Z,99116.54
2023-09-04T02:13:03.812Z,99114.32
2023-09-04T02:15:31.970Z,99114.98
2023-09-04T02:17:58.743Z,99113.32
2023-09-04T02:20:25.472Z,99115.96
2023-09-04T02:22:52.279Z,99116.63
2023-09-04T02:25:18.973Z,99119.97
2023-09-04T02:27:45.747Z,99121.27
2023-09-04T02:30:12.886Z,99123.94
2023-09-04T02:32:39.665Z,99120.81
2023-09-04T02:35:07.092Z,99121.89
2023-09-04T02:37:33.757Z,99126.04
2023-09-04T02:40:01.012Z,99126.46
2023-09-04T02:42:30.734Z,99125.88
2023-09-04T02:44:57.394Z,99130.38
2023-09-04T02:47:24.154Z,99128.09
2023-09-04T02:49:50.898Z,99127.38
2023-09-04T02:52:17.527Z,99126.34
2023-09-04T02:54:44.607Z,99127.21
2023-09-04T02:57:11.569Z,99126.69
2023-09-04T02:59:38.452Z,99124.98
2023-09-04T03:02:05.411Z,99121.25
2023-09-04T03:04:32.945Z,99124.10
2023-09-04T03:06:59.696Z,99123.15
2023-09-04T03:09:26.962Z,99115.77
2023-09-04T03:11:53.610Z,99118.27
2023-09-04T03:14:20.458Z,99118.20
2023-09-04T03:16:47.252Z,99116.61
2023-09-04T03:19:13.861Z,99119.17
2023-09-04T03:21:40.707Z,99121.91
2023-09-04T03:24:07.904Z,99123.08
2023-09-04T03:26:34.623Z,99125.48
2023-09-04T03:29:01.575Z,99131.33
2023-09-04T03:31:28.574Z,99135.81
2023-09-04T03:33:55.281Z,99136.89
2023-09-04T03:36:21.843Z,99141.30
2023-09-04T03:38:48.578Z,99145.45
2023-09-04T03:41:15.343Z,99148.49
2023-09-04T03:43:42.117Z,99153.88
2023-09-04T03:46:13.411Z,99157.86
2023-09-04T03:48:40.386Z,99155.42
2023-09-04T03:51:07.156Z,99162.21
2023-09-04T03:53:33.905Z,99161.13
2023-09-04T03:56:04.940Z,99161.63
2023-09-04T03:58:31.824Z,99156.92
2023-09-04T04:00:59.136Z,99153.23
2023-09-04T04:03:26.161Z,99148.58
2023-09-04T04:05:53.089Z,99149.84
2023-09-04T04:08:20.046Z,99153.98
2023-09-04T04:10:46.823Z,99156.05
2023-09-04T04:13:13.856Z,99166.77
2023-09-04T04:15:40.620Z,99169.02
2023-09-04T04:18:10.104Z,99169.66
2023-09-04T04:20:37.287Z,99169.48
2023-09-04T04:23:05.331Z,99177.75
2023-09-04T04:25:32.219Z,99183.43
2023-09-04T04:27:59.189Z,99188.70
2023-09-04T04:30:25.934Z,99193.09
2023-09-04T04:32:52.632Z,99185.16
2023-09-04T04:35:19.548Z,99188.72
2023-09-04T04:37:46.480Z,99192.54
2023-09-04T04:40:13.243Z,99199.39
2023-09-04T04:42:41.637Z,99198.89
2023-09-04T04:45:09.005Z,99207.75
2023-09-04T04:47:35.686Z,99212.61
2023-09-04T04:50:02.833Z,99210.91
2023-09-04T04:52:29.680Z,99213.77
2023-09-04T04:54:56.527Z,99216.73
2023-09-04T04:57:24.540Z,99217.94
2023-09-04T04:59:51.251Z,99217.73
2023-09-04T05:02:18.357Z,99221.13
2023-09-04T05:04:45.786Z,99225.86
2023-09-04T05:07:13.453Z,99227.36
2023-09-04T05:09:40.820Z,99230.28
2023-09-04T05:12:08.699Z,99234.39
2023-09-04T05:14:36.058Z,99240.06
2023-09-04T05:17:02.697Z,99241.86
2023-09-04T05:19:30.700Z,99242.52
2023-09-04T05:21:57.560Z,99249.70
2023-09-04T05:24:24.373Z,99247.52
2023-09-04T05:26:51.239Z,99249.64
2023-09-04T05:29:18.053Z,99246.98
2023-09-04T05:31:44.954Z,99244.88
2023-09-04T05:34:11.813Z,99246.70
2023-09-04T05:36:38.375Z,99242.48
2023-09-04T05:39:05.706Z,99248.74
2023-09-04T05:41:32.352Z,99250.00
2023-09-04T05:43:59.184Z,99247.11
2023-09-04T05:46:25.884Z,99254.66
2023-09-04T05:48:52.727Z,99255.89
2023-09-04T05:51:19.463Z,99262.36
2023-09-04T05:53:46.223Z,99267.83
2023-09-04T05:56:13.153Z,99263.28
2023-09-04T05:58:48.299Z,99262.21
2023-09-04T06:01:15.604Z,99261.48
2023-09-04T06:03:43.787Z,99261.00
2023-09-04T06:06:11.319Z,99256.08
2023-09-04T06:08:38.887Z,99248.66
2023-09-04T06:11:06.012Z,99241.95
2023-09-04T06:13:33.201Z,99242.79
2023-09-04T06:16:00.975Z,99241.73
2023-09-04T06:18:29.377Z,99239.79
2023-09-04T06:20:56.213Z,99241.85
2023-09-04T06:23:23.055Z,99246.78
2023-09-04T06:25:50.116Z,99247.91
2023-09-04T06:28:17.392Z,99241.52
2023-09-04T06:30:44.164Z,99239.23
2023-09-04T06:33:11.070Z,99238.15
2023-09-04T06:35:37.925Z,99231.13
2023-09-04T06:38:04.699Z,99230.44
2023-09-04T06:40:31.434Z,99233.35
2023-09-04T06:42:58.017Z,99232.48
2023-09-04T06:45:24.668Z,99229.49
2023-09-04T06:47:51.303Z,99230.58
2023-09-04T06:50:18.155Z,99229.16
2023-09-04T06:52:44.868Z,99225.56
2023-09-04T06:55:11.531Z,99227.82
2023-09-04T06:57:38.279Z,99227.45
2023-09-04T07:00:06.759Z,99228.24
2023-09-04T07:02:34.048Z,99233.22
2023-09-04T07:05:00.835Z,99232.72
2023-09-04T07:07:30.159Z,99231.23
2023-09-04T07:09:57.243Z,99234.77
2023-09-04T07:12:24.064Z,99234.04
2023-09-04T07:14:50.845Z,99232.27
2023-09-04T07:17:18.069Z,99227.87
2023-09-04T07:19:44.893Z,99231.93
2023-09-04T07:22:11.587Z,99242.59
2023-09-04T07:24:38.249Z,99246.69
2023-09-04T07:27:05.080Z,99253.84
2023-09-04T07:29:31.857Z,99254.74
2023-09-04T07:31:58.648Z,99260.44
2023-09-04T07:34:25.549Z,99264.23
2023-09-04T07:36:52.385Z,99271.92
2023-09-04T07:39:19.548Z,99278.55
2023-09-04T07:41:46.299Z,99277.64
2023-09-04T07:44:13.272Z,99277.36
2023-09-04T07:46:41.366Z,99278.36
2023-09-04T07:49:08.509Z,99285.56
2023-09-04T07:51:36.197Z,99287.81
2023-09-04T07:54:04.565Z,99287.23
2023-09-04T07:56:41.045Z,99289.90
2023-09-04T07:59:09.112Z,99287.52
2023-09-04T08:01:35.964Z,99291.36
2023-09-04T08:04:02.836Z,99290.30
2023-09-04T08:06:29.682Z,99290.69
2023-09-04T08:08:56.418Z,99295.55
2023-09-04T08:11:23.374Z,99296.63
2023-09-04T08:13:50.134Z,99299.11
2023-09-04T08:16:16.929Z,99297.34
2023-09-04T08:18:43.832Z,99294.12
2023-09-04T08:21:10.578Z,99288.52
2023-09-04T08:23:37.643Z,99287.82
2023-09-04T08:26:05.513Z,99293.92
2023-09-04T08:28:32.273Z,99294.56
2023-09-04T08:30:59.471Z,99298.30
2023-09-04T08:33:26.384Z,99300.52
2023-09-04T08:35:53.117Z,99296.61
2023-09-04T08:38:21.618Z,99300.80
2023-09-04T08:40:48.363Z,99299.61
2023-09-04T08:43:17.876Z,99295.23
2023-09-04T08:45:45.049Z,99303.77
2023-09-04T08:48:13.850Z,99294.88
2023-09-04T08:50:42.234Z,99300.56
2023-09-04T08:53:08.985Z,99299.91
2023-09-04T08:55:35.752Z,99292.95
2023-09-04T08:58:03.673Z,99289.42
2023-09-04T09:00:31.905Z,99288.45
2023-09-04T09:03:02.950Z,99286.00
2023-09-04T09:05:30.534Z,99285.92
2023-09-04T09:07:58.031Z,99279.10
2023-09-04T09:10:24.981Z,99280.61
2023-09-04T09:12:51.916Z,99284.62
2023-09-04T09:15:18.704Z,99282.33
2023-09-04T09:17:56.117Z,99284.27
2023-09-04T09:20:34.361Z,99287.80
2023-09-04T09:23:02.081Z,99289.24
2023-09-04T09:25:29.117Z,99290.70
2023-09-04T09:28:09.357Z,99288.69
2023-09-04T09:30:39.705Z,99289.18
2023-09-04T09:33:11.919Z,99290.52
2023-09-04T09:35:40.049Z,99284.92
2023-09-04T09:38:07.250Z,99286.85
2023-09-04T09:40:35.193Z,99287.61
2023-09-04T09:43:02.067Z,99289.57
2023-09-04T09:45:37.870Z,99289.52
2023-09-04T09:48:06.067Z,99287.73
2023-09-04T09:50:33.913Z,99292.05
2023-09-04T09:53:02.484Z,99294.34
2023-09-04T09:55:35.308Z,99296.65
2023-09-04T09:58:02.427Z,99299.09
2023-09-04T10:00:30.523Z,99294.52
2023-09-04T10:02:58.497Z,99294.50
2023-09-04T10:05:26.559Z,99300.26
2023-09-04T10:07:59.728Z,99296.03
2023-09-04T10:10:26.562Z,99295.03
2023-09-04T10:13:09.234Z,99290.00
2023-09-04T10:15:37.762Z,99290.78
2023-09-04T10:18:21.473Z,99286.73
2023-09-04T10:20:49.159Z,99285.77
2023-09-04T10:23:22.150Z,99284.80
2023-09-04T10:25:51.861Z,99280.09
2023-09-04T10:28:29.919Z,99271.95
2023-09-04T10:31:05.803Z,99282.42
2023-09-04T10:33:38.070Z,99284.94
2023-09-04T10:36:05.400Z,99280.41
2023-09-04T10:38:33.234Z,99278.05
2023-09-04T10:41:01.539Z,99277.42
2023-09-04T10:43:41.613Z,99275.92
2023-09-04T10:46:10.368Z,99269.89
2023-09-04T10:48:51.238Z,99269.33
2023-09-04T10:51:38.122Z,99268.27
2023-09-04T10:54:10.628Z,99268.05
2023-09-04T10:57:08.148Z,99273.41
2023-09-04T11:00:09.190Z,99271.05
2023-09-04T11:02:36.121Z,99268.71
2023-09-04T11:05:04.404Z,99264.66
2023-09-04T11:07:35.038Z,99261.23
2023-09-04T11:10:33.744Z,99262.15
2023-09-04T11:13:00.597Z,99260.44
2023-09-04T11:15:28.080Z,99261.51
2023-09-04T11:17:55.191Z,99259.64
2023-09-04T11:20:28.594Z,99250.75
2023-09-04T11:22:56.523Z,99263.18
2023-09-04T11:25:23.306Z,99264.37
2023-09-04T11:27:50.024Z,99262.77
2023-09-04T11:30:16.635Z,99265.14
2023-09-04T11:32:43.705Z,99263.70
2023-09-04T11:35:15.812Z,99271.21
2023-09-04T11:37:44.012Z,99274.41
2023-09-04T11:40:11.266Z,99271.00
2023-09-04T11:42:38.421Z,99265.40
2023-09-04T11:45:06.229Z,99262.52
2023-09-04T11:47:33.200Z,99263.52
2023-09-04T11:50:00.225Z,99260.48
2023-09-04T11:52:27.662Z,99261.70
2023-09-04T11:54:55.167Z,99258.00
2023-09-04T11:57:23.142Z,99256.99
2023-09-04T11:59:49.981Z,99254.73
2023-09-04T12:02:16.743Z,99251.95
2023-09-04T12:04:44.288Z,99251.89
2023-09-04T12:07:14.111Z,99252.88
2023-09-04T12:09:42.057Z,99249.15
2023-09-04T12:12:09.170Z,99251.23
2023-09-04T12:14:36.202Z,99248.46
2023-09-04T12:17:10.915Z,99243.44
2023-09-04T12:19:37.530Z,99242.45
2023-09-04T12:22:11.892Z,99235.76
2023-09-04T12:24:38.765Z,99242.11
2023-09-04T12:27:07.050Z,99242.80
2023-09-04T12:29:35.431Z,99240.77
2023-09-04T12:32:03.570Z,99237.27
2023-09-04T12:34:30.270Z,99237.80
2023-09-04T12:36:57.017Z,99236.48
2023-09-04T12:39:23.761Z,99235.61
2023-09-04T12:41:56.133Z,99239.90
2023-09-04T12:44:23.184Z,99239.39
2023-09-04T12:46:49.850Z,99240.14
2023-09-04T12:49:16.606Z,99238.05
2023-09-04T12:51:43.259Z,99236.39
2023-09-04T12:54:10.150Z,99231.12
2023-09-04T12:56:36.858Z,99236.73
2023-09-04T12:59:03.594Z,99227.85
2023-09-04T13:01:30.554Z,99222.24
2023-09-04T13:03:57.294Z,99220.79
2023-09-04T13:06:24.000Z,99221.04
2023-09-04T13:08:50.686Z,99219.65
2023-09-04T13:11:17.373Z,99218.91
2023-09-04T13:13:44.020Z,99213.10
2023-09-04T13:16:10.678Z,99214.13
2023-09-04T13:18:37.374Z,99217.41
2023-09-04T13:21:04.126Z,99213.02
2023-09-04T13:23:30.885Z,99206.70
2023-09-04T13:25:57.538Z,99207.70
2023-09-04T13:28:24.828Z,99205.90
2023-09-04T13:30:52.989Z,99207.95
2023-09-04T13:33:19.797Z,99206.95
2023-09-04T13:35:46.474Z,99201.21
2023-09-04T13:38:13.387Z,99198.85
2023-09-04T13:40:40.062Z,99199.52
2023-09-04T13:43:06.709Z,99203.02
2023-09-04T13:45:33.462Z,99207.27
2023-09-04T13:48:00.431Z,99201.92
2023-09-04T13:50:27.192Z,99195.75
2023-09-04T13:52:53.940Z,99200.00
2023-09-04T13:55:20.577Z,99201.06
2023-09-04T13:57:47.334Z,99198.42
2023-09-04T14:00:14.689Z,99196.61
2023-09-04T14:02:41.501Z,99191.98
2023-09-04T14:05:08.627Z,99191.52
2023-09-04T14:07:35.400Z,99195.75
2023-09-04T14:10:02.137Z,99199.20
2023-09-04T14:12:29.059Z,99199.85
2023-09-04T14:14:57.603Z,99189.52
2023-09-04T14:17:24.339Z,99192.00
2023-09-04T14:19:51.501Z,99188.08
2023-09-04T14:22:18.339Z,99192.77
2023-09-04T14:24:45.067Z,99190.81
2023-09-04T14:27:11.818Z,99193.65
2023-09-04T14:29:38.563Z,99192.39
2023-09-04T14:32:05.412Z,99194.41
2023-09-04T14:34:32.280Z,99195.23
2023-09-04T14:39:29.793Z,99195.20
2023-09-04T14:41:56.505Z,99194.28
2023-09-04T14:44:23.469Z,99196.63
2023-09-04T14:46:50.142Z,99203.35
2023-09-04T14:49:16.881Z,99205.77
2023-09-04T14:51:43.735Z,99209.92
2023-09-04T14:54:10.378Z,99212.29
2023-09-04T14:56:37.237Z,99207.84
2023-09-04T14:59:03.984Z,99205.70
2023-09-04T15:01:30.676Z,99207.23
2023-09-04T15:03:57.518Z,99207.29
2023-09-04T15:06:24.434Z,99208.52
2023-09-04T15:08:51.285Z,99206.35
2023-09-04T15:11:18.162Z,99206.25
2023-09-04T15:13:46.242Z,99204.23
2023-09-04T15:16:13.204Z,99203.00
2023-09-04T15:18:40.117Z,99204.98
2023-09-04T15:21:07.610Z,99208.73
2023-09-04T15:23:35.160Z,99209.00
2023-09-04T15:26:02.646Z,99208.64
2023-09-04T15:28:29.610Z,99212.43
2023-09-04T15:30:56.382Z,99210.95
2023-09-04T15:33:23.169Z,99211.27
2023-09-04T15:35:50.168Z,99207.56
2023-09-04T15:38:16.910Z,99214.20
2023-09-04T15:40:43.492Z,99212.98
2023-09-04T15:43:10.214Z,99212.27
2023-09-04T15:45:40.348Z,99214.82
2023-09-04T15:48:07.666Z,99217.21
2023-09-04T15:50:34.919Z,99216.13
2023-09-04T15:53:02.598Z,99218.75
2023-09-04T15:55:29.314Z,99216.25
2023-09-04T15:57:56.058Z,99217.45
2023-09-04T16:00:22.910Z,99221.32
2023-09-04T16:02:49.621Z,99222.95
2023-09-04T16:05:16.617Z,99223.39
2023-09-04T16:07:43.459Z,99222.68
2023-09-04T16:10:10.629Z,99218.68
2023-09-04T16:12:37.389Z,99222.67
2023-09-04T16:15:05.690Z,99225.33
2023-09-04T16:17:32.472Z,99229.06
2023-09-04T16:19:59.394Z,99231.08
2023-09-04T16:22:26.038Z,99230.09
2023-09-04T16:24:52.691Z,99234.01
2023-09-04T16:27:19.363Z,99237.06
2023-09-04T16:29:46.082Z,99237.36
2023-09-04T16:32:12.829Z,99241.05
2023-09-04T16:34:39.605Z,99242.16
2023-09-04T16:37:06.237Z,99247.24
2023-09-04T16:39:32.930Z,99246.89
2023-09-04T16:41:59.633Z,99250.54
2023-09-04T16:44:26.331Z,99255.89
2023-09-04T16:46:53.061Z,99265.70
2023-09-04T16:49:19.704Z,99265.15
2023-09-04T16:51:55.982Z,99272.17
2023-09-04T16:54:24.261Z,99275.73
2023-09-04T16:56:51.226Z,99277.15
2023-09-04T16:59:17.978Z,99274.60
2023-09-04T17:01:44.962Z,99274.17
2023-09-04T17:04:11.712Z,99275.77
2023-09-04T17:06:38.537Z,99272.27
2023-09-04T17:09:05.388Z,99274.17
2023-09-04T17:11:32.342Z,99271.55
2023-09-04T17:13:59.252Z,99269.89
2023-09-04T17:16:26.166Z,99271.79
2023-09-04T17:18:52.921Z,99272.63
2023-09-04T17:21:19.965Z,99268.46
2023-09-04T17:23:46.713Z,99273.91
2023-09-04T17:26:13.500Z,99276.01
2023-09-04T17:28:40.116Z,99274.96
2023-09-04T17:31:06.955Z,99272.95
2023-09-04T17:33:34.272Z,99272.84
2023-09-04T17:36:02.211Z,99277.06
2023-09-04T17:38:29.062Z,99282.71
2023-09-04T17:40:55.706Z,99284.77
2023-09-04T17:43:25.053Z,99285.70
2023-09-04T17:45:52.405Z,99281.95
2023-09-04T17:48:19.154Z,99284.76
2023-09-04T17:50:45.786Z,99284.14
2023-09-04T17:53:12.626Z,99288.84
2023-09-04T17:55:39.277Z,99288.48
2023-09-04T17:58:06.154Z,99286.75
2023-09-04T18:00:32.994Z,99289.34
2023-09-04T18:02:59.711Z,99290.23
2023-09-04T18:05:26.705Z,99290.92
2023-09-04T18:07:53.651Z,99291.98
2023-09-04T18:10:20.829Z,99296.37
2023-09-04T18:12:48.294Z,99301.30
2023-09-04T18:15:16.136Z,99302.09
2023-09-04T18:17:42.881Z,99301.58
2023-09-04T18:20:10.145Z,99298.25
2023-09-04T18:22:36.812Z,99303.81
2023-09-04T18:25:03.673Z,99301.82
2023-09-04T18:27:30.577Z,99305.06
2023-09-04T18:29:57.264Z,99299.58
2023-09-04T18:32:23.933Z,99297.70
2023-09-04T18:34:50.660Z,99303.98
2023-09-04T18:37:17.309Z,99310.40
2023-09-04T18:39:43.950Z,99310.13
2023-09-04T18:42:10.601Z,99305.91
2023-09-04T18:44:37.246Z,99306.02
2023-09-04T18:47:04.126Z,99305.05
2023-09-04T18:49:30.874Z,99305.98
2023-09-04T18:51:57.610Z,99305.47
2023-09-04T18:54:24.257Z,99306.07
2023-09-04T18:56:50.841Z,99310.89
2023-09-04T18:59:17.557Z,99314.63
2023-09-04T19:01:44.376Z,99315.39
2023-09-04T19:04:11.212Z,99314.39
2023-09-04T19:06:38.018Z,99319.51
2023-09-04T19:09:05.169Z,99316.49
2023-09-04T19:11:31.826Z,99319.06
2023-09-04T19:13:58.570Z,99320.59
2023-09-04T19:16:25.345Z,99322.40
2023-09-04T19:18:52.274Z,99328.65
2023-09-04T19:21:19.127Z,99334.16
2023-09-04T19:23:45.880Z,99333.15
2023-09-04T19:26:12.527Z,99334.61
2023-09-04T19:28:49.814Z,99332.86
2023-09-04T19:31:19.377Z,99332.50
2023-09-04T19:33:46.218Z,99334.05
2023-09-04T19:36:12.941Z,99336.09
2023-09-04T19:38:39.585Z,99340.76
2023-09-04T19:41:06.329Z,99346.24
2023-09-04T19:43:32.858Z,99347.98
2023-09-04T19:45:59.611Z,99349.61
2023-09-04T19:48:26.603Z,99347.34
2023-09-04T19:50:53.444Z,99343.01
2023-09-04T19:53:20.201Z,99346.56
2023-09-04T19:55:46.950Z,99349.06
2023-09-04T19:58:13.603Z,99346.21
2023-09-04T20:00:40.240Z,99345.45
2023-09-04T20:03:07.576Z,99343.08
2023-09-04T20:05:34.493Z,99342.08
2023-09-04T20:08:01.324Z,99346.58
2023-09-04T20:10:28.077Z,99352.23
2023-09-04T20:12:54.807Z,99354.64
2023-09-04T20:15:21.463Z,99355.17
2023-09-04T20:17:48.333Z,99354.89
2023-09-04T20:20:15.256Z,99360.20
2023-09-04T20:22:41.952Z,99362.32
2023-09-04T20:25:09.056Z,99356.20
2023-09-04T20:27:35.807Z,99354.06
2023-09-04T20:30:02.574Z,99353.26
2023-09-04T20:32:29.393Z,99358.89
2023-09-04T20:34:56.285Z,99356.88
2023-09-04T20:37:23.085Z,99360.77
2023-09-04T20:39:49.957Z,99364.59
2023-09-04T20:42:16.809Z,99366.46
2023-09-04T20:44:43.571Z,99363.46
2023-09-04T20:47:10.225Z,99365.83
2023-09-04T20:49:36.873Z,99372.61
2023-09-04T20:52:03.626Z,99373.31
2023-09-04T20:54:30.266Z,99374.33
2023-09-04T20:56:57.023Z,99375.14
2023-09-04T20:59:23.907Z,99374.59
2023-09-04T21:01:50.637Z,99370.77
2023-09-04T21:04:17.475Z,99372.27
2023-09-04T21:06:44.133Z,99376.06
2023-09-04T21:09:10.773Z,99377.83
2023-09-04T21:11:37.431Z,99379.23
2023-09-04T21:14:04.585Z,99382.41
2023-09-04T21:16:31.246Z,99385.51
2023-09-04T21:18:57.877Z,99385.59
2023-09-04T21:21:24.554Z,99380.87
2023-09-04T21:23:51.286Z,99380.13
2023-09-04T21:26:17.950Z,99384.77
2023-09-04T21:28:44.680Z,99383.81
2023-09-04T21:31:11.467Z,99382.18
2023-09-04T21:33:38.195Z,99384.00
2023-09-04T21:36:05.377Z,99384.46
2023-09-04T21:38:32.102Z,99385.02
2023-09-04T21:40:58.933Z,99388.19
2023-09-04T21:43:25.805Z,99388.08
2023-09-04T21:45:52.871Z,99387.41
2023-09-04T21:48:19.922Z,99388.77
2023-09-04T21:50:46.732Z,99385.17
2023-09-04T21:53:13.827Z,99388.91
2023-09-04T21:55:40.471Z,99391.84
2023-09-04T21:58:07.125Z,99392.05
2023-09-04T22:00:33.966Z,99391.77
2023-09-04T22:03:00.921Z,99395.73
2023-09-04T22:05:27.676Z,99403.08
2023-09-04T22:07:54.335Z,99396.02
2023-09-04T22:10:21.477Z,99395.85
2023-09-04T22:12:48.126Z,99395.08
2023-09-04T22:15:14.990Z,99392.15
2023-09-04T22:17:47.218Z,99390.70
2023-09-04T22:20:14.011Z,99388.63
2023-09-04T22:22:40.961Z,99389.30
2023-09-04T22:25:08.384Z,99392.64
2023-09-04T22:27:35.177Z,99389.55
2023-09-04T22:30:02.537Z,99392.58
2023-09-04T22:32:29.302Z,99390.92
2023-09-04T22:34:56.946Z,99393.38
2023-09-04T22:37:23.590Z,99396.40
2023-09-04T22:39:50.244Z,99396.65
2023-09-04T22:42:16.985Z,99397.41
2023-09-04T22:44:43.636Z,99394.17
2023-09-04T22:47:10.305Z,99393.52
2023-09-04T22:49:36.962Z,99393.35
2023-09-04T22:52:03.906Z,99390.23
2023-09-04T22:54:30.560Z,99385.69
2023-09-04T22:56:57.306Z,99383.95
2023-09-04T22:59:27.169Z,99380.20
2023-09-04T23:01:53.912Z,99375.08
2023-09-04T23:04:20.802Z,99376.75
2023-09-04T23:06:47.585Z,99375.14
2023-09-04T23:09:14.537Z,99370.42
2023-09-04T23:11:41.269Z,99368.12
2023-09-04T23:14:07.942Z,99368.42
2023-09-04T23:16:34.711Z,99370.27
2023-09-04T23:19:01.438Z,99368.41
2023-09-04T23:21:28.187Z,99366.02
2023-09-04T23:23:54.867Z,99368.68
2023-09-04T23:26:21.582Z,99366.93
2023-09-04T23:28:48.418Z,99370.77
2023-09-04T23:31:16.348Z,99369.02
2023-09-04T23:33:43.174Z,99366.90
2023-09-04T23:36:10.120Z,99367.91
2023-09-04T23:38:36.774Z,99364.96
2023-09-04T23:41:03.418Z,99371.29
2023-09-04T23:43:30.035Z,99375.59
2023-09-04T23:45:56.747Z,99374.73
2023-09-04T23:48:23.483Z,99371.33
2023-09-04T23:50:54.347Z,99374.77
2023-09-04T23:53:21.026Z,99375.02
2023-09-04T23:55:48.153Z,99371.80
2023-09-04T23:58:15.000Z,99366.83
